首页
METAR-TAF:

METAR-TAF

机场 :

纽伦堡机场

纽伦堡, 德国

纬度: 49-30N, 经度: 011-03E, 海拔: 318米

当前天气观测

该预报发布于29分钟前的03:20 UTC
风速8节,风向
温度 0°C
湿度 100%
气压 1004 hPa
能见度10公里或以上
1500米以下无云,无积雨云

METAR: EDDN 140320Z 10008KT CAVOK 00/M00 Q1004

时间: 04:49 (03:49 UTC)

预报

该预报发布于4小时和49分钟前的23:00 UTC
预报有效从14日的 00点(UTC)到 14日的 24点(UTC)
风速6节,风向东转东南
能见度10公里或以上
少量云层高于2000英尺

TAF: EDDN 132300Z 1400/1424 12006KT 9999 FEW020

超过4000个机场的气象观测和天气预报(METAR&TAF报告)。

可查询的气象台以黄色和红色小点在地图上表示。

将鼠标移到小点上方,可查看气象台名称。

然后点击查看天气观测和预报。

如需切换地图:点击带黑十字的绿色按钮放大地图;点击带横线的绿色按钮缩小地图;或者点击绿色箭头查看邻近地区的地图。


METAR-TAF: